createdAt,value
2023-02-12T00:00:55.705Z,52.25
2023-02-12T00:03:23.023Z,58.38
2023-02-12T00:05:50.668Z,56.13
2023-02-12T00:08:17.983Z,51.33
2023-02-12T00:10:45.258Z,49.83
2023-02-12T00:13:13.026Z,44.85
2023-02-12T00:15:41.940Z,50.70
2023-02-12T00:18:09.977Z,54.92
2023-02-12T00:20:38.112Z,56.25
2023-02-12T00:23:06.467Z,42.55
2023-02-12T00:25:34.789Z,56.53
2023-02-12T00:28:02.116Z,53.20
2023-02-12T00:30:30.112Z,48.05
2023-02-12T00:32:57.485Z,48.13
2023-02-12T00:35:24.882Z,52.15
2023-02-12T00:37:52.167Z,51.35
2023-02-12T00:40:19.867Z,50.83
2023-02-12T00:42:47.222Z,55.85
2023-02-12T00:45:14.632Z,50.72
2023-02-12T00:47:41.956Z,44.40
2023-02-12T00:50:09.655Z,56.08
2023-02-12T00:52:37.002Z,54.42
2023-02-12T00:55:05.330Z,50.03
2023-02-12T00:57:33.493Z,55.70
2023-02-12T01:00:00.854Z,49.88
2023-02-12T01:02:28.270Z,51.60
2023-02-12T01:04:56.113Z,50.03
2023-02-12T01:07:25.039Z,54.67
2023-02-12T01:09:52.308Z,49.83
2023-02-12T01:12:19.653Z,59.08
2023-02-12T01:14:47.411Z,56.17
2023-02-12T01:17:14.729Z,56.58
2023-02-12T01:19:44.935Z,56.15
2023-02-12T01:22:12.171Z,48.78
2023-02-12T01:24:39.508Z,59.22
2023-02-12T01:27:06.847Z,53.78
2023-02-12T01:29:34.088Z,53.67
2023-02-12T01:32:01.936Z,52.05
2023-02-12T01:34:29.370Z,49.17
2023-02-12T01:36:56.676Z,56.58
2023-02-12T01:39:23.896Z,55.90
2023-02-12T01:41:51.181Z,52.83
2023-02-12T01:44:20.930Z,61.72
2023-02-12T01:46:50.581Z,51.70
2023-02-12T01:49:33.460Z,51.47
2023-02-12T01:52:25.151Z,53.38
2023-02-12T01:54:57.184Z,54.88
2023-02-12T01:57:28.394Z,56.40
2023-02-12T01:59:59.174Z,52.72
2023-02-12T02:02:26.845Z,50.72
2023-02-12T02:04:59.096Z,45.30
2023-02-12T02:07:28.801Z,45.58
2023-02-12T02:09:58.814Z,49.75
2023-02-12T02:12:49.409Z,46.55
2023-02-12T02:15:17.737Z,47.10
2023-02-12T02:18:17.523Z,47.10
2023-02-12T02:21:03.986Z,51.95
2023-02-12T02:23:38.866Z,50.88
2023-02-12T02:26:35.600Z,48.75
2023-02-12T02:29:26.503Z,51.13
2023-02-12T02:32:24.268Z,54.90
2023-02-12T02:34:54.660Z,53.45
2023-02-12T02:37:33.273Z,49.15
2023-02-12T02:40:14.624Z,48.65
2023-02-12T02:43:18.178Z,50.22
2023-02-12T02:46:06.349Z,54.45
2023-02-12T02:48:38.951Z,55.38
2023-02-12T02:51:23.842Z,53.92
2023-02-12T02:54:01.719Z,56.72
2023-02-12T02:56:30.656Z,55.88
2023-02-12T02:59:06.122Z,48.78
2023-02-12T03:01:39.309Z,50.22
2023-02-12T03:04:10.059Z,52.92
2023-02-12T03:06:47.108Z,50.28
2023-02-12T03:09:35.448Z,59.35
2023-02-12T03:12:13.446Z,55.58
2023-02-12T03:14:47.502Z,53.33
2023-02-12T03:17:23.606Z,45.05
2023-02-12T03:20:10.415Z,48.58
2023-02-12T03:22:41.100Z,47.97
2023-02-12T03:25:18.370Z,57.22
2023-02-12T03:27:54.671Z,52.35
2023-02-12T03:30:22.967Z,51.08
2023-02-12T03:33:01.936Z,62.10
2023-02-12T03:35:37.868Z,59.25
2023-02-12T03:38:28.272Z,48.90
2023-02-12T03:41:22.623Z,60.45
2023-02-12T03:43:55.368Z,54.33
2023-02-12T03:46:35.563Z,50.70
2023-02-12T03:49:32.248Z,56.33
2023-02-12T03:51:59.793Z,46.55
2023-02-12T03:54:27.578Z,48.08
2023-02-12T03:57:07.632Z,54.25
2023-02-12T03:59:37.964Z,58.25
2023-02-12T04:02:05.429Z,48.33
2023-02-12T04:04:33.685Z,55.42
2023-02-12T04:07:01.540Z,56.95
2023-02-12T04:09:30.963Z,52.38
2023-02-12T04:12:00.992Z,55.53
2023-02-12T04:14:50.210Z,47.60
2023-02-12T04:17:40.272Z,50.28
2023-02-12T04:20:18.535Z,47.45
2023-02-12T04:23:15.441Z,46.67
2023-02-12T04:25:57.536Z,48.95
2023-02-12T04:28:46.308Z,49.78
2023-02-12T04:31:33.712Z,45.20
2023-02-12T04:34:25.248Z,50.22
2023-02-12T04:36:59.197Z,53.28
2023-02-12T04:39:29.947Z,57.90
2023-02-12T04:42:01.422Z,52.08
2023-02-12T04:44:33.951Z,49.97
2023-02-12T04:47:01.492Z,51.67
2023-02-12T04:49:28.866Z,48.40
2023-02-12T04:51:56.607Z,52.25
2023-02-12T04:54:24.698Z,49.50
2023-02-12T04:56:52.038Z,53.35
2023-02-12T04:59:19.433Z,49.70
2023-02-12T05:01:46.799Z,53.35
2023-02-12T05:04:16.529Z,65.45
2023-02-12T05:06:45.243Z,54.13
2023-02-12T05:09:20.123Z,57.55
2023-02-12T05:11:47.548Z,56.28
2023-02-12T05:14:15.457Z,51.88
2023-02-12T05:16:42.777Z,56.15
2023-02-12T05:19:10.200Z,62.28
2023-02-12T05:21:38.530Z,48.40
2023-02-12T05:24:06.625Z,44.70
2023-02-12T05:26:34.491Z,51.28
2023-02-12T05:29:03.283Z,48.88
2023-02-12T05:31:30.694Z,50.78
2023-02-12T05:33:58.120Z,51.10
2023-02-12T05:36:25.681Z,50.38
2023-02-12T05:39:00.256Z,53.38
2023-02-12T05:41:27.935Z,40.88
2023-02-12T05:43:55.177Z,50.25
2023-02-12T05:46:22.671Z,52.53
2023-02-12T05:48:50.195Z,48.35
2023-02-12T05:51:23.311Z,50.65
2023-02-12T05:53:52.656Z,48.60
2023-02-12T05:56:22.643Z,45.75
2023-02-12T05:58:55.905Z,40.75
2023-02-12T06:01:29.314Z,53.13
2023-02-12T06:03:58.067Z,48.75
2023-02-12T06:06:27.049Z,51.50
2023-02-12T06:08:55.716Z,48.40
2023-02-12T06:11:23.228Z,48.15
2023-02-12T06:13:50.944Z,45.45
2023-02-12T06:16:27.055Z,42.85
2023-02-12T06:18:55.781Z,46.92
2023-02-12T06:21:25.268Z,45.53
2023-02-12T06:23:53.194Z,44.35
2023-02-12T06:26:21.188Z,47.95
2023-02-12T06:28:48.923Z,44.97
2023-02-12T06:31:26.077Z,45.90
2023-02-12T06:33:54.539Z,44.92
2023-02-12T06:36:22.810Z,52.95
2023-02-12T06:38:50.388Z,43.83
2023-02-12T06:41:17.898Z,51.40
2023-02-12T06:43:45.450Z,51.28
2023-02-12T06:46:14.492Z,50.15
2023-02-12T06:48:41.880Z,45.17
2023-02-12T06:51:13.031Z,43.63
2023-02-12T06:53:40.778Z,46.88
2023-02-12T06:56:13.810Z,51.90
2023-02-12T06:58:46.419Z,46.88
2023-02-12T07:01:22.433Z,51.05
2023-02-12T07:03:54.946Z,52.63
2023-02-12T07:06:23.176Z,56.28
2023-02-12T07:08:50.756Z,53.38
2023-02-12T07:11:18.967Z,52.72
2023-02-12T07:13:46.214Z,52.55
2023-02-12T07:16:15.974Z,47.03
2023-02-12T07:18:44.543Z,56.00
2023-02-12T07:21:13.711Z,53.15
2023-02-12T07:23:41.464Z,49.08
2023-02-12T07:26:12.906Z,53.45
2023-02-12T07:28:40.997Z,51.97
2023-02-12T07:31:11.758Z,56.25
2023-02-12T07:33:39.897Z,55.72
2023-02-12T07:36:10.596Z,51.17
2023-02-12T07:38:41.170Z,51.55
2023-02-12T07:41:23.441Z,50.33
2023-02-12T07:43:55.513Z,48.47
2023-02-12T07:46:31.922Z,46.78
2023-02-12T07:49:01.184Z,41.58
2023-02-12T07:51:28.821Z,40.08
2023-02-12T07:53:56.667Z,41.28
2023-02-12T07:56:30.846Z,34.83
2023-02-12T07:59:11.015Z,39.67
2023-02-12T08:01:41.697Z,41.33
2023-02-12T08:04:13.190Z,39.97
2023-02-12T08:06:43.629Z,40.42
2023-02-12T08:09:14.012Z,38.60
2023-02-12T08:11:43.233Z,42.28
2023-02-12T08:14:13.076Z,42.28
2023-02-12T08:16:41.709Z,37.58
2023-02-12T08:19:19.544Z,40.13
2023-02-12T08:21:55.020Z,37.70
2023-02-12T08:24:22.915Z,41.15
2023-02-12T08:26:50.506Z,39.28
2023-02-12T08:29:20.919Z,36.67
2023-02-12T08:31:50.929Z,44.67
2023-02-12T08:34:19.406Z,44.88
2023-02-12T08:36:48.242Z,38.80
2023-02-12T08:39:16.595Z,41.08
2023-02-12T08:41:44.440Z,37.65
2023-02-12T08:44:12.357Z,39.22
2023-02-12T08:46:43.688Z,37.00
2023-02-12T08:49:30.481Z,43.15
2023-02-12T08:51:59.660Z,41.00
2023-02-12T08:54:29.301Z,43.63
2023-02-12T08:56:58.893Z,46.50
2023-02-12T08:59:26.379Z,40.72
2023-02-12T09:01:54.366Z,43.85
2023-02-12T09:04:24.797Z,46.35
2023-02-12T09:06:52.434Z,48.58
2023-02-12T09:09:19.919Z,42.78
2023-02-12T09:11:47.341Z,46.80
2023-02-12T09:14:16.708Z,43.17
2023-02-12T09:16:44.705Z,47.67
2023-02-12T09:19:13.832Z,38.75
2023-02-12T09:21:41.787Z,46.47
2023-02-12T09:24:09.573Z,43.80
2023-02-12T09:26:37.017Z,42.05
2023-02-12T09:29:04.958Z,42.92
2023-02-12T09:31:33.344Z,41.38
2023-02-12T09:34:03.616Z,49.90
2023-02-12T09:36:31.751Z,46.45
2023-02-12T09:38:59.885Z,49.80
2023-02-12T09:41:27.305Z,45.00
2023-02-12T09:44:25.787Z,50.03
2023-02-12T09:47:24.588Z,50.42
2023-02-12T09:50:02.293Z,45.08
2023-02-12T09:52:30.672Z,51.53
2023-02-12T09:54:58.981Z,50.58
2023-02-12T09:57:34.544Z,49.25
2023-02-12T10:00:15.815Z,45.70
2023-02-12T10:02:43.049Z,48.78
2023-02-12T10:05:19.803Z,46.45
2023-02-12T10:08:16.223Z,50.92
2023-02-12T10:10:46.190Z,51.38
2023-02-12T10:13:35.410Z,50.70
2023-02-12T10:16:12.707Z,52.28
2023-02-12T10:18:46.068Z,47.83
2023-02-12T10:21:40.350Z,50.13
2023-02-12T10:24:25.811Z,46.83
2023-02-12T10:26:58.276Z,47.95
2023-02-12T10:29:31.718Z,46.92
2023-02-12T10:32:04.930Z,46.72
2023-02-12T10:34:36.962Z,45.83
2023-02-12T10:37:38.390Z,48.05
2023-02-12T10:40:17.372Z,45.38
2023-02-12T10:42:47.491Z,40.35
2023-02-12T10:45:25.795Z,40.67
2023-02-12T10:48:02.050Z,43.15
2023-02-12T10:50:52.406Z,44.67
2023-02-12T10:53:32.505Z,41.58
2023-02-12T10:56:12.120Z,40.58
2023-02-12T10:58:41.515Z,45.67
2023-02-12T11:01:22.162Z,47.70
2023-02-12T11:03:50.982Z,37.97
2023-02-12T11:06:57.381Z,44.05
2023-02-12T11:09:40.686Z,40.85
2023-02-12T11:12:45.109Z,43.17
2023-02-12T11:15:20.136Z,45.45
2023-02-12T11:17:58.246Z,42.33
2023-02-12T11:20:29.202Z,39.38
2023-02-12T11:23:03.780Z,38.42
2023-02-12T11:25:36.413Z,38.50
2023-02-12T11:28:18.588Z,44.88
2023-02-12T11:30:57.124Z,48.33
2023-02-12T11:33:37.113Z,42.72
2023-02-12T11:36:23.882Z,36.78
2023-02-12T11:38:56.988Z,35.97
2023-02-12T11:41:43.299Z,42.08
2023-02-12T11:44:21.600Z,40.17
2023-02-12T11:46:52.229Z,38.53
2023-02-12T11:49:32.699Z,39.40
2023-02-12T11:52:05.174Z,35.35
2023-02-12T11:54:42.440Z,37.30
2023-02-12T11:57:38.404Z,37.58
2023-02-12T12:00:23.268Z,36.55
2023-02-12T12:03:23.384Z,36.05
2023-02-12T12:05:54.794Z,36.88
2023-02-12T12:08:27.905Z,35.97
2023-02-12T12:11:17.140Z,34.45
2023-02-12T12:14:03.739Z,42.00
2023-02-12T12:17:20.417Z,33.78
2023-02-12T12:19:56.759Z,34.72
2023-02-12T12:22:46.914Z,30.13
2023-02-12T12:25:40.730Z,30.35
2023-02-12T12:28:13.673Z,35.65
2023-02-12T12:30:49.570Z,30.92
2023-02-12T12:33:48.770Z,25.02
2023-02-12T12:36:37.814Z,27.42
2023-02-12T12:39:49.097Z,27.92
2023-02-12T12:42:19.285Z,24.63
2023-02-12T12:45:14.828Z,29.42
2023-02-12T12:47:54.218Z,27.95
2023-02-12T12:50:54.226Z,26.85
2023-02-12T12:53:36.806Z,22.70
2023-02-12T12:56:23.423Z,22.23
2023-02-12T12:59:24.490Z,20.98
2023-02-12T13:01:54.564Z,23.88
2023-02-12T13:04:36.987Z,22.20
2023-02-12T13:07:20.315Z,24.60
2023-02-12T13:09:59.852Z,21.02
2023-02-12T13:12:39.491Z,25.10
2023-02-12T13:15:25.774Z,22.50
2023-02-12T13:18:23.871Z,19.55
2023-02-12T13:21:20.396Z,21.30
2023-02-12T13:24:17.194Z,21.55
2023-02-12T13:26:55.907Z,23.67
2023-02-12T13:29:40.194Z,20.05
2023-02-12T13:32:23.929Z,22.50
2023-02-12T13:34:54.809Z,18.67
2023-02-12T13:37:48.755Z,22.55
2023-02-12T13:40:20.149Z,18.77
2023-02-12T13:43:09.178Z,19.23
2023-02-12T13:45:59.610Z,18.98
2023-02-12T13:48:33.105Z,21.13
2023-02-12T13:51:01.412Z,18.35
2023-02-12T13:53:56.527Z,18.08
2023-02-12T13:56:43.878Z,22.15
2023-02-12T13:59:38.250Z,18.58
2023-02-12T14:02:24.550Z,17.60
2023-02-12T14:05:01.557Z,20.85
2023-02-12T14:07:49.097Z,16.25
2023-02-12T14:10:26.042Z,18.30
2023-02-12T14:13:18.062Z,23.05
2023-02-12T14:15:55.698Z,21.85
2023-02-12T14:18:29.380Z,21.98
2023-02-12T14:21:12.040Z,21.67
2023-02-12T14:23:44.706Z,24.23
2023-02-12T14:26:17.812Z,22.48
2023-02-12T14:29:06.354Z,21.30
2023-02-12T14:31:39.064Z,21.05
2023-02-12T14:34:06.428Z,21.35
2023-02-12T14:36:38.807Z,18.58
2023-02-12T14:39:26.021Z,21.85
2023-02-12T14:41:55.109Z,21.73
2023-02-12T14:44:27.389Z,24.73
2023-02-12T14:46:57.424Z,21.27
2023-02-12T14:49:38.224Z,21.08
2023-02-12T14:52:14.728Z,21.95
2023-02-12T14:54:55.466Z,23.70
2023-02-12T14:57:38.153Z,22.08
2023-02-12T15:00:17.236Z,29.73
2023-02-12T15:03:00.254Z,23.20
2023-02-12T15:05:33.397Z,23.05
2023-02-12T15:08:12.210Z,20.35
2023-02-12T15:10:57.887Z,19.58
2023-02-12T15:13:49.277Z,19.58
2023-02-12T15:17:00.269Z,20.20
2023-02-12T15:19:41.861Z,23.33
2023-02-12T15:22:24.497Z,17.27
2023-02-12T15:24:52.017Z,20.05
2023-02-12T15:27:20.328Z,18.70
2023-02-12T15:29:52.498Z,18.92
2023-02-12T15:32:24.736Z,14.82
2023-02-12T15:34:53.329Z,16.25
2023-02-12T15:37:27.242Z,15.68
2023-02-12T15:39:59.190Z,14.80
2023-02-12T15:42:35.559Z,17.23
2023-02-12T15:45:14.347Z,19.10
2023-02-12T15:47:46.143Z,20.85
2023-02-12T15:50:16.888Z,11.55
2023-02-12T15:52:46.622Z,15.82
2023-02-12T15:55:30.402Z,17.33
2023-02-12T15:58:00.595Z,15.77
2023-02-12T16:00:44.435Z,15.63
2023-02-12T16:03:35.902Z,14.05
2023-02-12T16:06:15.270Z,12.85
2023-02-12T16:09:06.650Z,16.17
2023-02-12T16:11:35.521Z,13.00
2023-02-12T16:14:08.081Z,14.30
2023-02-12T16:16:53.135Z,12.43
2023-02-12T16:19:29.155Z,16.25
2023-02-12T16:22:05.733Z,14.55
2023-02-12T16:24:41.853Z,13.57
2023-02-12T16:27:21.181Z,13.70
2023-02-12T16:29:53.872Z,15.85
2023-02-12T16:32:37.932Z,14.35
2023-02-12T16:35:11.346Z,14.90
2023-02-12T16:37:38.656Z,15.98
2023-02-12T16:40:22.075Z,15.45
2023-02-12T16:42:49.435Z,15.02
2023-02-12T16:45:26.551Z,17.13
2023-02-12T16:48:09.026Z,12.30
2023-02-12T16:50:47.023Z,15.88
2023-02-12T16:53:25.250Z,16.58
2023-02-12T16:55:52.777Z,15.20
2023-02-12T16:58:20.249Z,18.20
2023-02-12T17:00:50.847Z,16.65
2023-02-12T17:03:18.485Z,16.75
2023-02-12T17:05:46.397Z,18.50
2023-02-12T17:08:19.645Z,18.23
2023-02-12T17:10:48.247Z,18.85
2023-02-12T17:13:15.800Z,17.77
2023-02-12T17:15:56.893Z,20.88
2023-02-12T17:18:25.041Z,17.00
2023-02-12T17:20:56.550Z,13.57
2023-02-12T17:23:24.586Z,18.73
2023-02-12T17:25:52.105Z,14.40
2023-02-12T17:28:20.039Z,16.48
2023-02-12T17:30:47.414Z,15.65
2023-02-12T17:33:16.426Z,12.52
2023-02-12T17:35:43.790Z,15.13
2023-02-12T17:38:11.179Z,17.77
2023-02-12T17:40:38.766Z,14.05
2023-02-12T17:43:06.685Z,11.02
2023-02-12T17:45:34.034Z,17.20
2023-02-12T17:48:01.492Z,19.95
2023-02-12T17:50:28.869Z,13.95
2023-02-12T17:52:56.567Z,17.13
2023-02-12T17:55:23.937Z,19.17
2023-02-12T17:57:55.533Z,17.92
2023-02-12T18:00:23.548Z,14.77
2023-02-12T18:02:51.469Z,16.65
2023-02-12T18:05:19.060Z,16.38
2023-02-12T18:07:46.680Z,15.23
2023-02-12T18:10:14.199Z,16.60
2023-02-12T18:12:41.950Z,15.18
2023-02-12T18:15:11.236Z,19.13
2023-02-12T18:17:43.064Z,15.40
2023-02-12T18:20:11.618Z,15.45
2023-02-12T18:22:38.968Z,15.68
2023-02-12T18:25:06.765Z,16.75
2023-02-12T18:27:34.637Z,16.27
2023-02-12T18:30:02.165Z,15.90
2023-02-12T18:32:29.475Z,15.63
2023-02-12T18:34:56.676Z,18.60
2023-02-12T18:37:24.086Z,14.05
2023-02-12T18:39:51.326Z,16.17
2023-02-12T18:42:18.731Z,14.40
2023-02-12T18:44:46.034Z,15.00
2023-02-12T18:47:13.358Z,13.32
2023-02-12T18:49:40.699Z,13.25
2023-02-12T18:52:08.049Z,12.82
2023-02-12T18:54:35.789Z,11.23
2023-02-12T18:57:03.186Z,11.05
2023-02-12T18:59:30.677Z,12.73
2023-02-12T19:01:58.117Z,11.55
2023-02-12T19:04:27.828Z,11.63
2023-02-12T19:06:55.702Z,11.18
2023-02-12T19:09:25.365Z,18.20
2023-02-12T19:11:55.885Z,12.13
2023-02-12T19:14:24.620Z,13.43
2023-02-12T19:16:52.868Z,11.85
2023-02-12T19:19:21.278Z,13.95
2023-02-12T19:21:51.245Z,14.48
2023-02-12T19:24:19.349Z,13.07
2023-02-12T19:26:50.124Z,14.82
2023-02-12T19:29:18.190Z,12.43
2023-02-12T19:31:46.569Z,10.80
2023-02-12T19:34:19.456Z,9.38
2023-02-12T19:36:47.848Z,10.65
2023-02-12T19:39:17.394Z,12.45
2023-02-12T19:41:46.798Z,10.52
2023-02-12T19:44:18.890Z,9.13
2023-02-12T19:46:47.668Z,10.05
2023-02-12T19:49:18.259Z,9.57
2023-02-12T19:51:46.315Z,12.85
2023-02-12T19:54:15.335Z,10.68
2023-02-12T19:56:42.897Z,11.60
2023-02-12T19:59:13.296Z,8.48
2023-02-12T20:01:41.065Z,9.40
2023-02-12T20:04:08.398Z,11.02
2023-02-12T20:06:37.343Z,10.48
2023-02-12T20:09:06.196Z,8.73
2023-02-12T20:11:40.196Z,11.20
2023-02-12T20:14:09.632Z,9.27
2023-02-12T20:16:39.194Z,9.95
2023-02-12T20:19:16.439Z,8.77
2023-02-12T20:21:44.275Z,12.85
2023-02-12T20:24:11.541Z,10.00
2023-02-12T20:26:39.219Z,9.85
2023-02-12T20:29:06.569Z,9.25
2023-02-12T20:31:36.091Z,10.95
2023-02-12T20:34:06.215Z,10.55
2023-02-12T20:36:36.654Z,10.80
2023-02-12T20:39:05.688Z,11.82
2023-02-12T20:41:35.934Z,11.38
2023-02-12T20:44:05.145Z,11.68
2023-02-12T20:46:32.653Z,11.50
2023-02-12T20:49:00.034Z,11.90
2023-02-12T20:51:27.816Z,12.00
2023-02-12T20:53:55.603Z,9.82
2023-02-12T20:56:26.604Z,11.35
2023-02-12T20:58:54.712Z,11.20
2023-02-12T21:01:34.747Z,10.48
2023-02-12T21:04:08.335Z,11.48
2023-02-12T21:06:36.426Z,8.38
2023-02-12T21:09:04.253Z,10.32
2023-02-12T21:11:31.595Z,9.82
2023-02-12T21:14:18.394Z,10.30
2023-02-12T21:16:47.240Z,12.45
2023-02-12T21:19:16.071Z,10.18
2023-02-12T21:21:49.872Z,9.32
2023-02-12T21:24:21.575Z,8.52
2023-02-12T21:26:50.364Z,9.50
2023-02-12T21:29:18.397Z,9.75
2023-02-12T21:31:47.953Z,8.52
2023-02-12T21:34:18.405Z,12.27
2023-02-12T21:36:47.687Z,10.85
2023-02-12T21:39:24.684Z,9.20
2023-02-12T21:41:58.144Z,9.73
2023-02-12T21:44:26.361Z,7.50
2023-02-12T21:46:54.401Z,6.70
2023-02-12T21:49:28.232Z,7.90
2023-02-12T21:52:02.658Z,8.10
2023-02-12T21:54:30.845Z,11.20
2023-02-12T21:56:59.150Z,8.68
2023-02-12T21:59:27.299Z,10.25
2023-02-12T22:01:58.215Z,7.85
2023-02-12T22:04:29.048Z,8.00
2023-02-12T22:06:57.926Z,10.70
2023-02-12T22:09:25.341Z,7.47
2023-02-12T22:11:53.449Z,9.73
2023-02-12T22:14:22.436Z,9.30
2023-02-12T22:16:50.317Z,8.32
2023-02-12T22:19:21.221Z,8.60
2023-02-12T22:21:51.431Z,11.48
2023-02-12T22:24:19.220Z,12.55
2023-02-12T22:26:46.678Z,12.20
2023-02-12T22:29:15.919Z,10.13
2023-02-12T22:31:45.472Z,9.63
2023-02-12T22:34:15.703Z,12.95
2023-02-12T22:36:43.945Z,11.32
2023-02-12T22:39:12.916Z,12.90
2023-02-12T22:41:42.053Z,11.65
2023-02-12T22:44:11.687Z,10.30
2023-02-12T22:46:40.401Z,8.75
2023-02-12T22:49:07.639Z,11.10
2023-02-12T22:51:37.257Z,11.55
2023-02-12T22:54:06.433Z,10.85
2023-02-12T22:56:34.102Z,12.63
2023-02-12T22:59:02.062Z,12.25
2023-02-12T23:01:38.258Z,11.20
2023-02-12T23:04:05.938Z,12.50
2023-02-12T23:06:33.598Z,11.05
2023-02-12T23:09:03.929Z,13.27
2023-02-12T23:11:33.013Z,12.10
2023-02-12T23:14:00.612Z,14.10
2023-02-12T23:16:28.345Z,12.95
2023-02-12T23:19:30.211Z,9.82
2023-02-12T23:22:10.470Z,14.60
2023-02-12T23:24:38.070Z,15.52
2023-02-12T23:27:05.301Z,13.32
2023-02-12T23:29:32.608Z,13.63
2023-02-12T23:31:59.936Z,15.05
2023-02-12T23:34:27.141Z,13.65
2023-02-12T23:36:54.374Z,14.85
2023-02-12T23:39:21.632Z,12.75
2023-02-12T23:41:48.978Z,16.90
2023-02-12T23:44:16.488Z,15.18
2023-02-12T23:46:43.682Z,12.73
2023-02-12T23:49:11.116Z,14.00
2023-02-12T23:51:38.413Z,13.45
2023-02-12T23:54:05.843Z,13.52
2023-02-12T23:56:33.129Z,15.70
2023-02-12T23:59:00.537Z,18.60
